Terminal Aerodrome Forecast
Issued by NWS

Home | Current Version | Previous Version | Text Only | Print | Product List | Glossary On
Versions: 1 2 3 4 5 6 7 8 9 10 11 12 13 14 15 16 17 18 19 20 21 22 23 24 25 26
000
FTUS43 KIND 270520
TAFLAF
TAF
KLAF 270520Z 2706/2806 10004KT P6SM BKN100
      TEMPO 2706/2709 4SM BR
     FM270900 10004KT 4SM BR SCT005 BKN100
     FM271300 13006KT P6SM VCTS SCT030CB BKN100
     FM272200 19007KT P6SM SCT035 BKN100
     FM280200 18004KT P6SM BKN100
      AMD LTD TO CLD VIS AND WIND TIL 271300=

USA.gov is the U.S. government's official web portal to all federal, state and local government web resources and services.